Time,TemperatureF,DewpointF,PressureIn,WindDirection,WindDirectionDegrees,WindSpeedMPH,WindSpeedGustMPH,Humidity,HourlyPrecipIn,Conditions,Clouds,dailyrainin,SoftwareType,DateUTC
2013-02-01 00:00:00,22.8,6.1,29.48,SW,233,3.0,4.0,48,0.00,,OVC055,0.00,VWS V12.08,2013-02-01 05:00:00,
2013-02-01 00:03:00,22.8,6.1,29.48,SSE,165,11.0,11.0,48,0.00,,OVC055,0.00,VWS V12.08,2013-02-01 05:03:00,
2013-02-01 00:08:00,22.8,6.5,29.48,WNW,295,4.0,11.0,49,0.00,,OVC055,0.00,VWS V12.08,2013-02-01 05:08:00,
2013-02-01 00:13:00,22.7,6.4,29.48,NW,309,2.0,3.0,49,0.00,,OVC055,0.00,VWS V12.08,2013-02-01 05:13:00,
2013-02-01 00:18:00,22.7,6.4,29.48,SSE,167,4.0,4.0,49,0.00,,OVC055,0.00,VWS V12.08,2013-02-01 05:18:00,
2013-02-01 00:23:00,22.5,6.7,29.48,SW,226,2.0,3.0,50,0.00,,OVC055,0.00,VWS V12.08,2013-02-01 05:23:00,
2013-02-01 00:28:00,22.5,6.7,29.48,WSW,256,2.0,5.0,50,0.00,,OVC055,0.00,VWS V12.08,2013-02-01 05:28:00,
2013-02-01 00:33:00,22.4,7.0,29.48,NW,318,6.0,8.0,51,0.00,,OVC055,0.00,VWS V12.08,2013-02-01 05:33:00,
2013-02-01 00:38:00,22.2,6.8,29.48,SW,227,3.0,10.0,51,0.00,,OVC055,0.00,VWS V12.08,2013-02-01 05:38:00,
2013-02-01 00:43:00,22.1,7.2,29.49,West,272,5.0,8.0,52,0.00,,OVC055,0.00,VWS V12.08,2013-02-01 05:43:00,
2013-02-01 00:48:00,22.1,7.6,29.49,South,172,7.0,7.0,53,0.00,,OVC055,0.00,VWS V12.08,2013-02-01 05:48:00,
2013-02-01 00:53:00,22.1,7.6,29.49,SSW,208,2.0,3.0,53,0.00,,OVC055,0.00,VWS V12.08,2013-02-01 05:53:00,
2013-02-01 00:58:00,21.9,8.2,29.49,SSW,202,2.0,6.0,55,0.00,,OVC055,0.00,VWS V12.08,2013-02-01 05:58:00,
2013-02-01 01:03:00,21.9,7.8,29.49,SSW,213,5.0,6.0,54,0.00,,OVC055,0.00,VWS V12.08,2013-02-01 06:03:00,
2013-02-01 01:08:00,21.9,8.2,29.49,WSW,237,0.0,3.0,55,0.00,,OVC055,0.00,VWS V12.08,2013-02-01 06:08:00,
2013-02-01 01:13:00,21.8,8.1,29.50,West,261,1.0,10.0,55,0.00,,OVC055,0.00,VWS V12.08,2013-02-01 06:13:00,
2013-02-01 01:18:00,21.6,7.9,29.50,SW,229,2.0,4.0,55,0.00,,OVC055,0.00,VWS V12.08,2013-02-01 06:18:00,
2013-02-01 01:23:00,21.6,7.9,29.50,SE,126,1.0,2.0,55,0.00,,OVC055,0.00,VWS V12.08,2013-02-01 06:23:00,
2013-02-01 01:28:00,21.5,8.2,29.50,WSW,250,2.0,6.0,56,0.00,,OVC055,0.00,VWS V12.08,2013-02-01 06:28:00,
2013-02-01 01:33:00,21.5,8.2,29.50,WSW,243,0.0,4.0,56,0.00,,OVC055,0.00,VWS V12.08,2013-02-01 06:33:00,
2013-02-01 01:38:00,21.5,8.2,29.50,SW,219,2.0,7.0,56,0.00,,OVC055,0.00,VWS V12.08,2013-02-01 06:38:00,
2013-02-01 01:43:00,21.3,8.1,29.51,SSW,205,6.0,9.0,56,0.00,,FEW050,0.00,VWS V12.08,2013-02-01 06:43:00,
2013-02-01 01:48:00,21.3,8.1,29.51,WSW,240,3.0,8.0,56,0.00,,FEW050,0.00,VWS V12.08,2013-02-01 06:48:00,
2013-02-01 01:53:00,21.2,8.0,29.51,SSE,157,8.0,11.0,56,0.00,,FEW050,0.00,VWS V12.08,2013-02-01 06:53:00,
2013-02-01 01:58:00,21.2,8.0,29.51,South,189,1.0,3.0,56,0.00,,FEW050,0.00,VWS V12.08,2013-02-01 06:58:00,
2013-02-01 02:03:00,21.2,8.4,29.51,WSW,251,2.0,10.0,57,0.00,,FEW050,0.00,VWS V12.08,2013-02-01 07:03:00,
2013-02-01 02:08:00,21.2,8.4,29.51,SSW,212,1.0,7.0,57,0.00,,FEW050,0.00,VWS V12.08,2013-02-01 07:08:00,
2013-02-01 02:13:00,21.0,8.6,29.52,SW,229,8.0,8.0,58,0.00,,FEW050,0.00,VWS V12.08,2013-02-01 07:13:00,
2013-02-01 02:18:00,21.0,9.3,29.52,SW,217,5.0,11.0,60,0.00,,FEW050,0.00,VWS V12.08,2013-02-01 07:18:00,
2013-02-01 02:23:00,20.9,9.6,29.52,SW,219,6.0,7.0,61,0.00,,FEW050,0.00,VWS V12.08,2013-02-01 07:23:00,
2013-02-01 02:28:00,20.9,10.3,29.52,WSW,240,5.0,9.0,63,0.00,,FEW050,0.00,VWS V12.08,2013-02-01 07:28:00,
2013-02-01 02:33:00,20.7,10.5,29.52,SSW,209,10.0,12.0,64,0.00,,FEW050,0.00,VWS V12.08,2013-02-01 07:33:00,
2013-02-01 02:38:00,20.5,10.3,29.52,SW,233,12.0,19.0,64,0.00,,FEW050,0.00,VWS V12.08,2013-02-01 07:38:00,
2013-02-01 02:43:00,20.4,10.5,29.52,SW,227,9.0,13.0,65,0.00,,CLR,0.00,VWS V12.08,2013-02-01 07:43:00,
2013-02-01 02:48:00,20.4,10.9,29.52,WSW,241,0.0,7.0,66,0.00,,CLR,0.00,VWS V12.08,2013-02-01 07:48:00,
2013-02-01 02:53:00,20.2,11.0,29.52,WSW,253,6.0,11.0,67,0.00,,CLR,0.00,VWS V12.08,2013-02-01 07:53:00,
2013-02-01 02:58:00,20.2,11.0,29.52,SW,222,10.0,10.0,67,0.00,,CLR,0.00,VWS V12.08,2013-02-01 07:58:00,
2013-02-01 03:03:00,20.2,11.0,29.52,NW,309,3.0,5.0,67,0.00,,CLR,0.00,VWS V12.08,2013-02-01 08:03:00,
2013-02-01 03:08:00,20.1,10.6,29.52,NW,325,3.0,7.0,66,0.00,,CLR,0.00,VWS V12.08,2013-02-01 08:08:00,
2013-02-01 03:14:00,20.1,10.6,29.53,WSW,239,0.0,4.0,66,0.00,,CLR,0.00,VWS V12.08,2013-02-01 08:14:00,
2013-02-01 03:19:00,20.1,10.6,29.53,WSW,240,3.0,5.0,66,0.00,,CLR,0.00,VWS V12.08,2013-02-01 08:19:00,
2013-02-01 03:24:00,20.1,10.6,29.53,West,265,3.0,3.0,66,0.00,,CLR,0.00,VWS V12.08,2013-02-01 08:24:00,
2013-02-01 03:29:00,20.1,10.9,29.53,SW,216,3.0,5.0,67,0.00,,CLR,0.00,VWS V12.08,2013-02-01 08:29:00,
2013-02-01 03:34:00,20.1,10.9,29.53,SW,233,1.0,3.0,67,0.00,,CLR,0.00,VWS V12.08,2013-02-01 08:34:00,
2013-02-01 03:39:00,19.9,10.7,29.53,SW,233,3.0,3.0,67,0.00,,CLR,0.00,VWS V12.08,2013-02-01 08:39:00,
2013-02-01 03:44:00,19.9,10.7,29.54,SW,219,1.0,6.0,67,0.00,,FEW040,0.00,VWS V12.08,2013-02-01 08:44:00,
2013-02-01 03:49:00,19.9,11.1,29.54,SW,219,0.0,3.0,68,0.00,,FEW040,0.00,VWS V12.08,2013-02-01 08:49:00,
2013-02-01 03:54:00,19.9,10.7,29.54,SW,219,0.0,0.0,67,0.00,,FEW040,0.00,VWS V12.08,2013-02-01 08:54:00,
2013-02-01 03:59:00,19.9,10.7,29.54,SW,220,0.0,0.0,67,0.00,,FEW040,0.00,VWS V12.08,2013-02-01 08:59:00,
2013-02-01 04:04:00,19.8,10.3,29.54,SW,220,0.0,3.0,66,0.00,,FEW040,0.00,VWS V12.08,2013-02-01 09:04:00,
2013-02-01 04:09:00,19.8,10.3,29.54,SW,222,0.0,6.0,66,0.00,,FEW040,0.00,VWS V12.08,2013-02-01 09:09:00,
2013-02-01 04:14:00,19.8,9.9,29.55,SW,224,1.0,3.0,65,0.00,,FEW040,0.00,VWS V12.08,2013-02-01 09:14:00,
2013-02-01 04:19:00,19.8,8.9,29.55,WSW,256,3.0,6.0,62,0.00,,FEW040,0.00,VWS V12.08,2013-02-01 09:19:00,
2013-02-01 04:24:00,19.8,7.8,29.55,WNW,302,5.0,5.0,59,0.00,,FEW040,0.00,VWS V12.08,2013-02-01 09:24:00,
2013-02-01 04:29:00,19.8,6.7,29.56,SW,216,0.0,3.0,56,0.00,,FEW040,0.00,VWS V12.08,2013-02-01 09:29:00,
2013-02-01 04:34:00,19.9,6.3,29.56,WNW,292,2.0,5.0,55,0.00,,FEW040,0.00,VWS V12.08,2013-02-01 09:34:00,
2013-02-01 04:39:00,19.9,7.1,29.56,SSW,210,2.0,5.0,57,0.00,,FEW040,0.00,VWS V12.08,2013-02-01 09:39:00,
2013-02-01 04:44:00,19.9,6.8,29.56,SW,215,1.0,2.0,56,0.00,,OVC049,0.00,VWS V12.08,2013-02-01 09:44:00,
2013-02-01 04:49:00,19.9,6.3,29.56,South,169,1.0,1.0,55,0.00,,OVC049,0.00,VWS V12.08,2013-02-01 09:49:00,
2013-02-01 04:54:00,19.9,6.8,29.56,South,169,0.0,2.0,56,0.00,,OVC049,0.00,VWS V12.08,2013-02-01 09:54:00,
2013-02-01 04:59:00,19.9,6.8,29.57,South,169,0.0,0.0,56,0.00,,OVC049,0.00,VWS V12.08,2013-02-01 09:59:00,
2013-02-01 05:04:00,19.9,6.3,29.57,South,184,0.0,3.0,55,0.00,,OVC049,0.00,VWS V12.08,2013-02-01 10:04:00,
2013-02-01 05:09:00,19.9,5.9,29.57,NW,312,1.0,3.0,54,0.00,,OVC049,0.00,VWS V12.08,2013-02-01 10:09:00,
2013-02-01 05:14:00,19.9,6.8,29.58,SW,234,0.0,2.0,56,0.00,,OVC049,0.00,VWS V12.08,2013-02-01 10:14:00,
2013-02-01 05:19:00,19.9,6.3,29.58,WSW,241,5.0,9.0,55,0.00,,OVC049,0.00,VWS V12.08,2013-02-01 10:19:00,
2013-02-01 05:24:00,19.9,6.3,29.58,WSW,243,1.0,2.0,55,0.00,,OVC049,0.00,VWS V12.08,2013-02-01 10:24:00,
2013-02-01 05:29:00,19.8,6.7,29.58,WSW,247,3.0,5.0,56,0.00,,OVC049,0.00,VWS V12.08,2013-02-01 10:29:00,
2013-02-01 05:34:00,19.6,6.8,29.58,NW,304,1.0,3.0,57,0.00,,OVC049,0.00,VWS V12.08,2013-02-01 10:34:00,
2013-02-01 05:39:00,19.4,7.4,29.58,WNW,298,6.0,7.0,59,0.00,,OVC049,0.00,VWS V12.08,2013-02-01 10:39:00,
2013-02-01 05:44:00,19.1,7.5,29.59,NW,313,1.0,7.0,60,0.00,,OVC050,0.00,VWS V12.08,2013-02-01 10:44:00,
2013-02-01 05:49:00,19.0,8.1,29.59,WNW,288,2.0,3.0,62,0.00,,OVC050,0.00,VWS V12.08,2013-02-01 10:49:00,
2013-02-01 05:54:00,18.8,8.3,29.59,NW,318,1.0,3.0,63,0.00,,OVC050,0.00,VWS V12.08,2013-02-01 10:54:00,
2013-02-01 05:59:00,18.6,8.1,29.59,WNW,296,3.0,7.0,63,0.00,,OVC050,0.00,VWS V12.08,2013-02-01 10:59:00,
2013-02-01 06:04:00,18.5,8.4,29.59,NE,54,0.0,2.0,64,0.00,,OVC050,0.00,VWS V12.08,2013-02-01 11:04:00,
2013-02-01 06:09:00,18.3,8.5,29.59,NW,319,1.0,2.0,65,0.00,,OVC050,0.00,VWS V12.08,2013-02-01 11:09:00,
2013-02-01 06:14:00,18.3,8.9,29.61,NW,322,1.0,2.0,66,0.00,,OVC050,0.00,VWS V12.08,2013-02-01 11:14:00,
2013-02-01 06:19:00,18.0,8.9,29.61,WSW,246,0.0,8.0,67,0.00,,OVC050,0.00,VWS V12.08,2013-02-01 11:19:00,
2013-02-01 06:24:00,17.7,9.3,29.61,WSW,246,0.0,2.0,69,0.00,,OVC050,0.00,VWS V12.08,2013-02-01 11:24:00,
2013-02-01 06:29:00,17.5,9.4,29.62,NNW,332,3.0,5.0,70,0.00,,OVC050,0.00,VWS V12.08,2013-02-01 11:29:00,
2013-02-01 06:34:00,17.2,9.4,29.62,SSE,151,1.0,2.0,71,0.00,,OVC050,0.00,VWS V12.08,2013-02-01 11:34:00,
2013-02-01 06:39:00,17.1,9.3,29.62,NW,311,2.0,10.0,71,0.00,,OVC050,0.00,VWS V12.08,2013-02-01 11:39:00,
2013-02-01 06:44:00,16.9,9.4,29.64,SW,222,6.0,6.0,72,0.00,,OVC036,0.00,VWS V12.08,2013-02-01 11:44:00,
2013-02-01 06:49:00,16.8,9.4,29.64,East,86,0.0,1.0,72,0.00,,OVC036,0.00,VWS V12.08,2013-02-01 11:49:00,
2013-02-01 06:54:00,16.6,9.5,29.64,East,86,0.0,1.0,73,0.00,,OVC036,0.00,VWS V12.08,2013-02-01 11:54:00,
2013-02-01 06:59:00,16.4,9.6,29.65,North,349,0.0,1.0,74,0.00,,OVC036,0.00,VWS V12.08,2013-02-01 11:59:00,
2013-02-01 07:04:00,16.3,9.8,29.65,North,354,1.0,1.0,75,0.00,,OVC036,0.00,VWS V12.08,2013-02-01 12:04:00,
2013-02-01 07:09:00,16.0,9.5,29.65,North,357,2.0,2.0,75,0.00,,OVC036,0.00,VWS V12.08,2013-02-01 12:09:00,
2013-02-01 07:14:00,15.7,9.8,29.66,ENE,69,2.0,3.0,77,0.00,,OVC036,0.00,VWS V12.08,2013-02-01 12:14:00,
2013-02-01 07:19:00,15.3,9.4,29.66,ENE,66,1.0,2.0,77,0.00,,OVC036,0.00,VWS V12.08,2013-02-01 12:19:00,
2013-02-01 07:24:00,15.3,9.7,29.66,ENE,69,0.0,2.0,78,0.00,,OVC039,0.00,VWS V12.08,2013-02-01 12:24:00,
2013-02-01 07:29:00,15.2,9.6,29.67,ENE,65,1.0,2.0,78,0.00,,OVC039,0.00,VWS V12.08,2013-02-01 12:29:00,
2013-02-01 07:34:00,15.2,9.3,29.67,NE,51,1.0,1.0,77,0.00,,OVC039,0.00,VWS V12.08,2013-02-01 12:34:00,
2013-02-01 07:39:00,15.2,9.0,29.67,NE,51,1.0,2.0,76,0.00,,OVC039,0.00,VWS V12.08,2013-02-01 12:39:00,
2013-02-01 07:44:00,15.2,9.0,29.69,NE,51,1.0,2.0,76,0.00,,OVC039,0.00,VWS V12.08,2013-02-01 12:44:00,
2013-02-01 07:49:00,15.0,8.5,29.69,NW,308,0.0,1.0,75,0.00,,OVC039,0.00,VWS V12.08,2013-02-01 12:49:00,
2013-02-01 07:54:00,15.0,8.5,29.69,NW,306,1.0,1.0,75,0.00,,OVC039,0.00,VWS V12.08,2013-02-01 12:54:00,
2013-02-01 07:59:00,15.0,8.5,29.70,NW,306,0.0,0.0,75,0.00,,OVC039,0.00,VWS V12.08,2013-02-01 12:59:00,
2013-02-01 08:04:00,15.2,8.4,29.70,NW,305,0.0,0.0,74,0.00,,OVC039,0.00,VWS V12.08,2013-02-01 13:04:00,
2013-02-01 08:09:00,15.2,8.4,29.70,NW,306,0.0,0.0,74,0.00,,OVC039,0.00,VWS V12.08,2013-02-01 13:09:00,
2013-02-01 08:14:00,15.3,8.2,29.71,NE,52,1.0,3.0,73,0.00,,OVC039,0.00,VWS V12.08,2013-02-01 13:14:00,
2013-02-01 08:19:00,15.7,8.0,29.71,ENE,59,2.0,2.0,71,0.00,,OVC039,0.00,VWS V12.08,2013-02-01 13:19:00,
2013-02-01 08:24:00,16.0,8.3,29.71,SSW,213,2.0,4.0,71,0.00,,OVC036,0.00,VWS V12.08,2013-02-01 13:24:00,
2013-02-01 08:29:00,16.1,8.1,29.72,SSW,213,0.0,2.0,70,0.00,,OVC036,0.00,VWS V12.08,2013-02-01 13:29:00,
2013-02-01 08:34:00,16.4,8.0,29.72,SW,217,0.0,2.0,69,0.00,,OVC036,0.00,VWS V12.08,2013-02-01 13:34:00,
2013-02-01 08:39:00,17.1,8.7,29.72,West,270,0.0,0.0,69,0.00,,OVC036,0.00,VWS V12.08,2013-02-01 13:39:00,
2013-02-01 08:44:00,17.4,8.0,29.73,West,280,1.0,2.0,66,0.00,,OVC027,0.00,VWS V12.08,2013-02-01 13:44:00,
2013-02-01 08:49:00,17.4,7.7,29.73,West,280,0.0,0.0,65,0.00,,OVC027,0.00,VWS V12.08,2013-02-01 13:49:00,
2013-02-01 08:54:00,17.4,7.3,29.73,West,280,1.0,1.0,64,0.00,,OVC027,0.00,VWS V12.08,2013-02-01 13:54:00,
2013-02-01 08:59:00,17.2,7.1,29.74,WNW,285,2.0,5.0,64,0.00,,OVC027,0.00,VWS V12.08,2013-02-01 13:59:00,
2013-02-01 09:04:00,17.2,6.4,29.74,West,274,2.0,2.0,62,0.00,,SCT028,0.00,VWS V12.08,2013-02-01 14:04:00,
2013-02-01 09:09:00,17.4,6.3,29.74,NW,312,2.0,3.0,61,0.00,,SCT028,0.00,VWS V12.08,2013-02-01 14:09:00,
2013-02-01 09:14:00,17.4,5.5,29.75,WSW,253,2.0,7.0,59,0.00,,SCT028,0.00,VWS V12.08,2013-02-01 14:14:00,
2013-02-01 09:20:00,17.1,4.9,29.75,NW,312,1.0,3.0,58,0.00,,SCT028,0.00,VWS V12.08,2013-02-01 14:20:00,
2013-02-01 09:25:00,17.1,4.9,29.75,NW,318,2.0,6.0,58,0.00,,OVC027,0.00,VWS V12.08,2013-02-01 14:25:00,
2013-02-01 09:30:00,17.1,4.9,29.75,WSW,246,6.0,7.0,58,0.00,,OVC027,0.00,VWS V12.08,2013-02-01 14:30:00,
2013-02-01 09:35:00,16.9,3.9,29.75,SW,236,6.0,8.0,56,0.00,,OVC027,0.00,VWS V12.08,2013-02-01 14:35:00,
2013-02-01 09:40:00,16.8,4.2,29.75,SSW,210,2.0,3.0,57,0.00,,OVC027,0.00,VWS V12.08,2013-02-01 14:40:00,
2013-02-01 09:45:00,16.9,4.3,29.76,NNW,340,2.0,3.0,57,0.00,,BKN028,0.00,VWS V12.08,2013-02-01 14:45:00,
2013-02-01 09:50:00,17.1,4.1,29.76,NNW,328,0.0,5.0,56,0.00,,BKN028,0.00,VWS V12.08,2013-02-01 14:50:00,
2013-02-01 09:55:00,17.4,4.8,29.76,ENE,68,0.0,2.0,57,0.00,,BKN028,0.00,VWS V12.08,2013-02-01 14:55:00,
2013-02-01 10:00:00,17.9,5.2,29.77,SSE,155,3.0,7.0,57,0.00,,SCT030,0.00,VWS V12.08,2013-02-01 15:00:00,
2013-02-01 10:05:00,18.0,5.3,29.77,East,86,1.0,1.0,57,0.00,,SCT030,0.00,VWS V12.08,2013-02-01 15:05:00,
2013-02-01 10:10:00,17.9,4.9,29.77,East,88,1.0,2.0,56,0.00,,SCT030,0.00,VWS V12.08,2013-02-01 15:10:00,
2013-02-01 10:15:00,18.3,5.2,29.77,SW,230,5.0,8.0,56,0.00,,SCT030,0.00,VWS V12.08,2013-02-01 15:15:00,
2013-02-01 10:20:00,18.5,5.4,29.77,NW,323,1.0,3.0,56,0.00,,BKN030,0.00,VWS V12.08,2013-02-01 15:20:00,
2013-02-01 10:25:00,18.6,4.7,29.77,WNW,285,1.0,9.0,54,0.00,,BKN030,0.00,VWS V12.08,2013-02-01 15:25:00,
2013-02-01 10:30:00,18.5,4.6,29.78,South,186,2.0,3.0,54,0.00,,BKN030,0.00,VWS V12.08,2013-02-01 15:30:00,
2013-02-01 10:35:00,18.5,4.6,29.78,NW,315,2.0,6.0,54,0.00,,BKN030,0.00,VWS V12.08,2013-02-01 15:35:00,
2013-02-01 10:40:00,18.5,4.2,29.78,West,280,1.0,5.0,53,0.00,,BKN032,0.00,VWS V12.08,2013-02-01 15:40:00,
2013-02-01 10:45:00,18.5,4.2,29.79,SW,226,4.0,6.0,53,0.00,,BKN032,0.00,VWS V12.08,2013-02-01 15:45:00,
2013-02-01 10:50:00,18.5,4.6,29.79,NW,308,3.0,6.0,54,0.00,,BKN032,0.00,VWS V12.08,2013-02-01 15:50:00,
2013-02-01 10:55:00,18.8,4.5,29.79,SSW,199,2.0,7.0,53,0.00,,BKN032,0.00,VWS V12.08,2013-02-01 15:55:00,
2013-02-01 11:00:00,19.1,4.8,29.79,NNW,333,1.0,6.0,53,0.00,,BKN032,0.00,VWS V12.08,2013-02-01 16:00:00,
2013-02-01 11:05:00,19.3,4.6,29.79,NW,320,0.0,2.0,52,0.00,,BKN032,0.00,VWS V12.08,2013-02-01 16:05:00,
2013-02-01 11:10:00,19.4,4.2,29.79,SSW,206,6.0,6.0,51,0.00,,BKN032,0.00,VWS V12.08,2013-02-01 16:10:00,
2013-02-01 11:15:00,19.3,4.6,29.80,WSW,258,2.0,5.0,52,0.00,,BKN032,0.00,VWS V12.08,2013-02-01 16:15:00,
2013-02-01 11:20:00,19.1,4.8,29.80,WSW,254,2.0,7.0,53,0.00,,BKN032,0.00,VWS V12.08,2013-02-01 16:20:00,
2013-02-01 11:25:00,18.6,3.5,29.80,West,264,1.0,5.0,51,0.00,,BKN032,0.00,VWS V12.08,2013-02-01 16:25:00,
2013-02-01 11:30:00,18.5,3.8,29.79,WSW,240,5.0,6.0,52,0.00,,BKN032,0.00,VWS V12.08,2013-02-01 16:30:00,
2013-02-01 11:35:00,18.5,3.4,29.79,NNE,27,5.0,6.0,51,0.00,,BKN032,0.00,VWS V12.08,2013-02-01 16:35:00,
2013-02-01 11:40:00,18.6,3.9,29.79,NW,305,4.0,10.0,52,0.00,,SCT034,0.00,VWS V12.08,2013-02-01 16:40:00,
2013-02-01 11:45:00,18.5,3.8,29.79,West,267,2.0,4.0,52,0.00,,SCT034,0.00,VWS V12.08,2013-02-01 16:45:00,
2013-02-01 11:50:00,18.6,3.9,29.79,WNW,287,0.0,5.0,52,0.00,,SCT034,0.00,VWS V12.08,2013-02-01 16:50:00,
2013-02-01 11:55:00,19.0,5.1,29.79,SSW,208,1.0,2.0,54,0.00,,SCT034,0.00,VWS V12.08,2013-02-01 16:55:00,
2013-02-01 12:00:00,19.4,5.1,29.79,WNW,295,3.0,6.0,53,0.00,,SCT034,0.00,VWS V12.08,2013-02-01 17:00:00,
2013-02-01 12:05:00,19.4,5.1,29.79,North,359,0.0,1.0,53,0.00,,SCT034,0.00,VWS V12.08,2013-02-01 17:05:00,
2013-02-01 12:10:00,19.6,4.8,29.79,SW,232,0.0,2.0,52,0.00,,SCT034,0.00,VWS V12.08,2013-02-01 17:10:00,
2013-02-01 12:15:00,19.9,4.7,29.79,South,174,3.0,4.0,51,0.00,,SCT034,0.00,VWS V12.08,2013-02-01 17:15:00,
2013-02-01 12:20:00,20.1,4.5,29.79,East,92,0.0,2.0,50,0.00,,SCT034,0.00,VWS V12.08,2013-02-01 17:20:00,
2013-02-01 12:25:00,20.2,4.6,29.79,West,272,0.0,1.0,50,0.00,,SCT034,0.00,VWS V12.08,2013-02-01 17:25:00,
2013-02-01 12:30:00,20.5,5.3,29.79,NNW,329,2.0,5.0,51,0.00,,SCT034,0.00,VWS V12.08,2013-02-01 17:30:00,
2013-02-01 12:35:00,20.2,4.6,29.79,NNE,25,0.0,4.0,50,0.00,,SCT034,0.00,VWS V12.08,2013-02-01 17:35:00,
2013-02-01 12:40:00,19.9,5.1,29.79,NW,315,1.0,3.0,52,0.00,,BKN070,0.00,VWS V12.08,2013-02-01 17:40:00,
2013-02-01 12:45:00,20.1,5.3,29.79,NW,320,0.0,5.0,52,0.00,,BKN070,0.00,VWS V12.08,2013-02-01 17:45:00,
2013-02-01 12:50:00,20.2,5.4,29.79,North,352,4.0,4.0,52,0.00,,BKN070,0.00,VWS V12.08,2013-02-01 17:50:00,
2013-02-01 12:55:00,20.1,4.5,29.79,NNW,336,0.0,2.0,50,0.00,,BKN070,0.00,VWS V12.08,2013-02-01 17:55:00,
2013-02-01 13:00:00,20.2,5.8,29.79,NNW,335,2.0,6.0,53,0.00,,BKN070,0.00,VWS V12.08,2013-02-01 18:00:00,
2013-02-01 13:05:00,20.1,4.9,29.79,NW,305,1.0,2.0,51,0.00,,BKN070,0.00,VWS V12.08,2013-02-01 18:05:00,
2013-02-01 13:10:00,20.1,5.7,29.79,NNE,23,1.0,3.0,53,0.00,,BKN070,0.00,VWS V12.08,2013-02-01 18:10:00,
2013-02-01 13:15:00,19.9,4.7,29.80,WSW,239,1.0,4.0,51,0.00,,BKN070,0.00,VWS V12.08,2013-02-01 18:15:00,
2013-02-01 13:20:00,19.8,5.4,29.80,WNW,288,6.0,6.0,53,0.00,,BKN070,0.00,VWS V12.08,2013-02-01 18:20:00,
2013-02-01 13:25:00,19.9,5.1,29.80,WNW,298,1.0,2.0,52,0.00,,BKN070,0.00,VWS V12.08,2013-02-01 18:25:00,
2013-02-01 13:30:00,20.2,5.0,29.80,West,277,3.0,3.0,51,0.00,,BKN070,0.00,VWS V12.08,2013-02-01 18:30:00,
2013-02-01 13:35:00,20.2,4.6,29.80,SE,143,3.0,5.0,50,0.00,,BKN070,0.00,VWS V12.08,2013-02-01 18:35:00,
2013-02-01 13:40:00,20.4,4.7,29.80,West,263,0.0,3.0,50,0.00,,OVC049,0.00,VWS V12.08,2013-02-01 18:40:00,
2013-02-01 13:45:00,19.9,3.8,29.81,ENE,76,4.0,5.0,49,0.00,,OVC049,0.00,VWS V12.08,2013-02-01 18:45:00,
2013-02-01 13:50:00,19.4,2.5,29.81,SSW,193,1.0,9.0,47,0.00,,OVC049,0.00,VWS V12.08,2013-02-01 18:50:00,
2013-02-01 13:55:00,19.0,3.4,29.81,NW,323,6.0,7.0,50,0.00,,OVC049,0.00,VWS V12.08,2013-02-01 18:55:00,
2013-02-01 14:00:00,18.8,3.7,29.81,SW,216,3.0,7.0,51,0.00,,OVC049,0.00,VWS V12.08,2013-02-01 19:00:00,
2013-02-01 14:05:00,18.8,3.7,29.81,SSW,206,6.0,7.0,51,0.00,,OVC049,0.00,VWS V12.08,2013-02-01 19:05:00,
2013-02-01 14:10:00,19.3,3.7,29.81,West,270,0.0,4.0,50,0.00,,OVC049,0.00,VWS V12.08,2013-02-01 19:10:00,
2013-02-01 14:15:00,19.4,3.4,29.81,WSW,253,2.0,6.0,49,0.00,,OVC049,0.00,VWS V12.08,2013-02-01 19:15:00,
2013-02-01 14:20:00,19.6,3.5,29.81,SSW,210,1.0,3.0,49,0.00,,OVC049,0.00,VWS V12.08,2013-02-01 19:20:00,
2013-02-01 14:25:00,19.6,4.4,29.81,NW,311,1.0,6.0,51,0.00,,OVC049,0.00,VWS V12.08,2013-02-01 19:25:00,
2013-02-01 14:30:00,19.8,3.7,29.81,NW,316,5.0,10.0,49,0.00,,OVC049,0.00,VWS V12.08,2013-02-01 19:30:00,
2013-02-01 14:35:00,19.9,3.4,29.81,NW,309,2.0,4.0,48,0.00,,OVC049,0.00,VWS V12.08,2013-02-01 19:35:00,
2013-02-01 14:40:00,20.4,4.7,29.81,WNW,294,3.0,6.0,50,0.00,,OVC048,0.00,VWS V12.08,2013-02-01 19:40:00,
2013-02-01 14:45:00,20.1,4.0,29.82,WNW,298,1.0,2.0,49,0.00,,OVC048,0.00,VWS V12.08,2013-02-01 19:45:00,
2013-02-01 14:50:00,19.8,3.7,29.82,NNE,28,1.0,3.0,49,0.00,,OVC048,0.00,VWS V12.08,2013-02-01 19:50:00,
2013-02-01 14:55:00,19.0,2.6,29.82,NE,56,2.0,3.0,48,0.00,,OVC048,0.00,VWS V12.08,2013-02-01 19:55:00,
2013-02-01 15:00:00,18.3,2.3,29.83,WSW,256,2.0,4.0,49,0.00,,OVC048,0.00,VWS V12.08,2013-02-01 20:00:00,
2013-02-01 15:05:00,17.9,2.0,29.83,SW,230,2.0,4.0,49,0.00,,OVC048,0.00,VWS V12.08,2013-02-01 20:05:00,
2013-02-01 15:10:00,17.5,2.0,29.83,North,356,3.0,3.0,50,0.00,,OVC048,0.00,VWS V12.08,2013-02-01 20:10:00,
2013-02-01 15:15:00,17.2,1.8,29.85,West,278,2.0,6.0,50,0.00,,OVC048,0.00,VWS V12.08,2013-02-01 20:15:00,
2013-02-01 15:20:00,17.1,2.1,29.85,ESE,103,2.0,3.0,51,0.00,,OVC048,0.00,VWS V12.08,2013-02-01 20:20:00,
2013-02-01 15:25:00,16.9,1.5,29.85,NW,316,3.0,5.0,50,0.00,,OVC048,0.00,VWS V12.08,2013-02-01 20:25:00,
2013-02-01 15:30:00,16.8,1.4,29.85,South,172,3.0,5.0,50,0.00,,OVC048,0.00,VWS V12.08,2013-02-01 20:30:00,
2013-02-01 15:35:00,16.6,1.2,29.85,NW,318,3.0,5.0,50,0.00,,OVC048,0.00,VWS V12.08,2013-02-01 20:35:00,
2013-02-01 15:40:00,16.4,1.0,29.85,SSW,193,1.0,2.0,50,0.00,,BKN040,0.00,VWS V12.08,2013-02-01 20:40:00,
2013-02-01 15:45:00,16.3,1.8,29.86,SW,234,3.0,3.0,52,0.00,,BKN040,0.00,VWS V12.08,2013-02-01 20:45:00,
2013-02-01 15:50:00,16.3,1.8,29.86,NW,319,2.0,6.0,52,0.00,,BKN040,0.00,VWS V12.08,2013-02-01 20:50:00,
2013-02-01 15:55:00,16.1,1.6,29.86,NW,312,2.0,3.0,52,0.00,,BKN040,0.00,VWS V12.08,2013-02-01 20:55:00,
2013-02-01 16:00:00,16.1,1.2,29.86,WSW,246,3.0,3.0,51,0.00,,BKN040,0.00,VWS V12.08,2013-02-01 21:00:00,
2013-02-01 16:05:00,16.0,1.5,29.86,WSW,256,3.0,6.0,52,0.00,,BKN040,0.00,VWS V12.08,2013-02-01 21:05:00,
2013-02-01 16:10:00,15.8,1.3,29.86,SW,226,1.0,7.0,52,0.00,,BKN040,0.00,VWS V12.08,2013-02-01 21:10:00,
2013-02-01 16:15:00,15.8,1.7,29.87,SW,226,1.0,2.0,53,0.00,,BKN040,0.00,VWS V12.08,2013-02-01 21:15:00,
2013-02-01 16:20:00,15.7,1.2,29.87,SW,226,0.0,3.0,52,0.00,,BKN040,0.00,VWS V12.08,2013-02-01 21:20:00,
2013-02-01 16:25:00,15.5,1.4,29.87,SW,226,0.0,2.0,53,0.00,,BKN040,0.00,VWS V12.08,2013-02-01 21:25:00,
2013-02-01 16:30:00,15.5,2.2,29.88,SW,226,0.0,1.0,55,0.00,,BKN040,0.00,VWS V12.08,2013-02-01 21:30:00,
2013-02-01 16:35:00,15.3,1.2,29.88,NW,304,0.0,2.0,53,0.00,,BKN040,0.00,VWS V12.08,2013-02-01 21:35:00,
2013-02-01 16:40:00,15.2,2.0,29.88,NW,304,0.0,1.0,55,0.00,,OVC040,0.00,VWS V12.08,2013-02-01 21:40:00,
2013-02-01 16:45:00,15.2,1.5,29.89,NW,304,0.0,0.0,54,0.00,,OVC040,0.00,VWS V12.08,2013-02-01 21:45:00,
2013-02-01 16:50:00,14.9,3.5,29.89,East,80,0.0,3.0,60,0.00,,OVC040,0.00,VWS V12.08,2013-02-01 21:50:00,
2013-02-01 16:55:00,14.9,4.2,29.89,East,80,0.0,0.0,62,0.00,,OVC040,0.00,VWS V12.08,2013-02-01 21:55:00,
2013-02-01 17:00:00,14.7,4.4,29.90,East,79,1.0,2.0,63,0.00,,OVC040,0.00,VWS V12.08,2013-02-01 22:00:00,
2013-02-01 17:05:00,14.5,4.6,29.90,East,79,1.0,3.0,64,0.00,,OVC040,0.00,VWS V12.08,2013-02-01 22:05:00,
2013-02-01 17:10:00,14.4,4.5,29.90,East,79,0.0,0.0,64,0.00,,OVC040,0.00,VWS V12.08,2013-02-01 22:10:00,
2013-02-01 17:15:00,14.2,4.6,29.91,East,79,0.0,2.0,65,0.00,,OVC040,0.00,VWS V12.08,2013-02-01 22:15:00,
2013-02-01 17:20:00,14.1,4.5,29.91,ENE,76,2.0,3.0,65,0.00,,OVC040,0.00,VWS V12.08,2013-02-01 22:20:00,
2013-02-01 17:25:00,13.9,4.7,29.91,ENE,76,2.0,2.0,66,0.00,,OVC040,0.00,VWS V12.08,2013-02-01 22:25:00,
2013-02-01 17:30:00,13.7,4.5,29.92,ENE,58,5.0,6.0,66,0.00,,OVC040,0.00,VWS V12.08,2013-02-01 22:30:00,
2013-02-01 17:35:00,13.6,4.4,29.92,ENE,58,0.0,1.0,66,0.00,,OVC040,0.00,VWS V12.08,2013-02-01 22:35:00,
2013-02-01 17:40:00,13.6,4.4,29.92,ENE,58,0.0,0.0,66,0.00,,BKN038,0.00,VWS V12.08,2013-02-01 22:40:00,
2013-02-01 17:45:00,13.4,4.2,29.93,ENE,58,0.0,3.0,66,0.00,,BKN038,0.00,VWS V12.08,2013-02-01 22:45:00,
2013-02-01 17:51:00,13.2,4.0,29.93,ENE,58,1.0,1.0,66,0.00,,BKN038,0.00,VWS V12.08,2013-02-01 22:51:00,
2013-02-01 17:56:00,13.1,4.5,29.93,ENE,59,0.0,1.0,68,0.00,,BKN038,0.00,VWS V12.08,2013-02-01 22:56:00,
2013-02-01 18:01:00,12.9,4.3,29.94,ENE,59,0.0,1.0,68,0.00,,BKN038,0.00,VWS V12.08,2013-02-01 23:01:00,
2013-02-01 18:06:00,12.8,4.6,29.94,ENE,59,1.0,2.0,69,0.00,,BKN038,0.00,VWS V12.08,2013-02-01 23:06:00,
2013-02-01 18:11:00,12.6,4.4,29.94,ENE,59,0.0,0.0,69,0.00,,BKN038,0.00,VWS V12.08,2013-02-01 23:11:00,
2013-02-01 18:16:00,12.4,4.2,29.96,ENE,59,0.0,0.0,69,0.00,,BKN038,0.00,VWS V12.08,2013-02-01 23:16:00,
2013-02-01 18:21:00,12.3,4.1,29.96,ENE,59,1.0,1.0,69,0.00,,BKN038,0.00,VWS V12.08,2013-02-01 23:21:00,
2013-02-01 18:26:00,12.1,3.9,29.96,ENE,59,0.0,1.0,69,0.00,,BKN038,0.00,VWS V12.08,2013-02-01 23:26:00,
2013-02-01 18:31:00,12.0,4.1,29.97,ENE,59,0.0,3.0,70,0.00,,BKN038,0.00,VWS V12.08,2013-02-01 23:31:00,
2013-02-01 18:36:00,11.8,3.9,29.97,ENE,59,3.0,3.0,70,0.00,,BKN038,0.00,VWS V12.08,2013-02-01 23:36:00,
2013-02-01 18:41:00,11.8,3.9,29.97,ENE,61,2.0,3.0,70,0.00,,FEW034,0.00,VWS V12.08,2013-02-01 23:41:00,
2013-02-01 18:46:00,11.8,3.9,29.98,ENE,61,0.0,0.0,70,0.00,,FEW034,0.00,VWS V12.08,2013-02-01 23:46:00,
2013-02-01 18:51:00,11.6,3.7,29.98,ENE,61,1.0,2.0,70,0.00,,FEW034,0.00,VWS V12.08,2013-02-01 23:51:00,
2013-02-01 18:56:00,11.6,4.0,29.98,ENE,61,0.0,0.0,71,0.00,,FEW034,0.00,VWS V12.08,2013-02-01 23:56:00,
2013-02-01 19:01:00,11.6,4.0,29.99,ENE,61,1.0,1.0,71,0.00,,FEW034,0.00,VWS V12.08,2013-02-02 00:01:00,
2013-02-01 19:06:00,11.5,3.6,29.99,ENE,61,0.0,0.0,70,0.00,,FEW034,0.00,VWS V12.08,2013-02-02 00:06:00,
2013-02-01 19:11:00,11.5,3.9,29.99,ENE,61,0.0,0.0,71,0.00,,FEW034,0.00,VWS V12.08,2013-02-02 00:11:00,
2013-02-01 19:16:00,11.3,3.4,30.00,ENE,61,0.0,1.0,70,0.00,,FEW034,0.00,VWS V12.08,2013-02-02 00:16:00,
2013-02-01 19:21:00,11.3,3.7,30.00,ENE,61,0.0,1.0,71,0.00,,FEW034,0.00,VWS V12.08,2013-02-02 00:21:00,
2013-02-01 19:26:00,11.1,3.5,30.00,ENE,61,1.0,1.0,71,0.00,,FEW034,0.00,VWS V12.08,2013-02-02 00:26:00,
2013-02-01 19:31:00,11.1,3.5,30.01,ENE,61,0.0,1.0,71,0.00,,FEW034,0.00,VWS V12.08,2013-02-02 00:31:00,
2013-02-01 19:36:00,11.1,3.5,30.01,ENE,61,0.0,1.0,71,0.00,,FEW034,0.00,VWS V12.08,2013-02-02 00:36:00,
2013-02-01 19:41:00,11.3,3.7,30.01,ENE,61,0.0,0.0,71,0.00,,FEW034,0.00,VWS V12.08,2013-02-02 00:41:00,
2013-02-01 19:46:00,11.3,3.4,30.02,ENE,61,0.0,1.0,70,0.00,,FEW034,0.00,VWS V12.08,2013-02-02 00:46:00,
2013-02-01 19:51:00,11.5,3.0,30.02,ENE,61,0.0,2.0,68,0.00,,FEW034,0.00,VWS V12.08,2013-02-02 00:51:00,
2013-02-01 19:56:00,11.6,2.8,30.02,ENE,61,1.0,2.0,67,0.00,,FEW034,0.00,VWS V12.08,2013-02-02 00:56:00,
2013-02-01 20:01:00,11.8,2.7,30.03,ENE,62,2.0,5.0,66,0.00,,FEW034,0.00,VWS V12.08,2013-02-02 01:01:00,
2013-02-01 20:06:00,11.8,2.0,30.03,NNW,340,1.0,2.0,64,0.00,,FEW034,0.00,VWS V12.08,2013-02-02 01:06:00,
2013-02-01 20:11:00,11.8,2.0,30.03,NNW,340,1.0,2.0,64,0.00,,FEW034,0.00,VWS V12.08,2013-02-02 01:11:00,
2013-02-01 20:16:00,11.8,1.6,30.03,ENE,71,1.0,6.0,63,0.00,,FEW034,0.00,VWS V12.08,2013-02-02 01:16:00,
2013-02-01 20:21:00,11.8,1.6,30.03,ENE,71,1.0,2.0,63,0.00,,FEW034,0.00,VWS V12.08,2013-02-02 01:21:00,
2013-02-01 20:26:00,11.8,1.0,30.03,ENE,72,2.0,2.0,61,0.00,,FEW034,0.00,VWS V12.08,2013-02-02 01:26:00,
2013-02-01 20:31:00,11.8,1.3,30.04,ENE,76,1.0,4.0,62,0.00,,FEW034,0.00,VWS V12.08,2013-02-02 01:31:00,
2013-02-01 20:36:00,12.0,1.5,30.04,ENE,75,2.0,3.0,62,0.00,,FEW034,0.00,VWS V12.08,2013-02-02 01:36:00,
2013-02-01 20:41:00,11.8,1.0,30.04,East,83,3.0,5.0,61,0.00,,BKN037,0.00,VWS V12.08,2013-02-02 01:41:00,
2013-02-01 20:46:00,11.8,1.3,30.04,East,83,1.0,1.0,62,0.00,,BKN037,0.00,VWS V12.08,2013-02-02 01:46:00,
2013-02-01 20:51:00,11.8,1.0,30.04,NE,54,2.0,4.0,61,0.00,,BKN037,0.00,VWS V12.08,2013-02-02 01:51:00,
2013-02-01 20:56:00,11.8,1.0,30.04,ENE,75,2.0,6.0,61,0.00,,BKN037,0.00,VWS V12.08,2013-02-02 01:56:00,
2013-02-01 21:01:00,11.8,0.6,30.04,NE,52,0.0,2.0,60,0.00,,BKN037,0.00,VWS V12.08,2013-02-02 02:01:00,
2013-02-01 21:06:00,11.6,0.8,30.04,NE,55,1.0,2.0,61,0.00,,BKN037,0.00,VWS V12.08,2013-02-02 02:06:00,
2013-02-01 21:11:00,11.6,0.1,30.04,NE,51,1.0,2.0,59,0.00,,BKN037,0.00,VWS V12.08,2013-02-02 02:11:00,
2013-02-01 21:16:00,11.5,0.7,30.05,ENE,73,3.0,6.0,61,0.00,,BKN037,0.00,VWS V12.08,2013-02-02 02:16:00,
2013-02-01 21:21:00,11.5,0.3,30.05,ENE,75,0.0,2.0,60,0.00,,BKN037,0.00,VWS V12.08,2013-02-02 02:21:00,
2013-02-01 21:26:00,11.5,0.3,30.05,ENE,75,0.0,1.0,60,0.00,,BKN037,0.00,VWS V12.08,2013-02-02 02:26:00,
2013-02-01 21:31:00,11.5,0.3,30.04,ENE,71,1.0,1.0,60,0.00,,BKN037,0.00,VWS V12.08,2013-02-02 02:31:00,
2013-02-01 21:36:00,11.5,0.3,30.04,NE,55,2.0,3.0,60,0.00,,BKN037,0.00,VWS V12.08,2013-02-02 02:36:00,
2013-02-01 21:41:00,11.5,0.3,30.04,NE,55,0.0,3.0,60,0.00,,OVC049,0.00,VWS V12.08,2013-02-02 02:41:00,
2013-02-01 21:46:00,11.5,0.0,30.05,ENE,65,3.0,3.0,59,0.00,,OVC049,0.00,VWS V12.08,2013-02-02 02:46:00,
2013-02-01 21:51:00,11.5,0.3,30.05,ENE,72,2.0,5.0,60,0.00,,OVC049,0.00,VWS V12.08,2013-02-02 02:51:00,
2013-02-01 21:56:00,11.5,0.3,30.05,NE,48,2.0,3.0,60,0.00,,OVC049,0.00,VWS V12.08,2013-02-02 02:56:00,
2013-02-01 22:01:00,11.3,0.5,30.05,NE,48,2.0,3.0,61,0.00,,OVC049,0.00,VWS V12.08,2013-02-02 03:01:00,
2013-02-01 22:06:00,11.3,0.1,30.05,NE,48,3.0,3.0,60,0.00,,OVC049,0.00,VWS V12.08,2013-02-02 03:06:00,
2013-02-01 22:11:00,11.3,0.1,30.05,ENE,62,4.0,5.0,60,0.00,,OVC049,0.00,VWS V12.08,2013-02-02 03:11:00,
2013-02-01 22:16:00,11.3,0.1,30.06,NE,49,1.0,3.0,60,0.00,,OVC049,0.00,VWS V12.08,2013-02-02 03:16:00,
2013-02-01 22:21:00,11.3,0.1,30.06,NE,51,0.0,0.0,60,0.00,,OVC049,0.00,VWS V12.08,2013-02-02 03:21:00,
2013-02-01 22:26:00,11.3,0.5,30.06,NE,49,0.0,4.0,61,0.00,,OVC049,0.00,VWS V12.08,2013-02-02 03:26:00,
2013-02-01 22:31:00,11.3,0.1,30.06,NE,51,1.0,3.0,60,0.00,,OVC049,0.00,VWS V12.08,2013-02-02 03:31:00,
2013-02-01 22:36:00,11.3,0.1,30.06,NE,51,1.0,3.0,60,0.00,,OVC049,0.00,VWS V12.08,2013-02-02 03:36:00,
2013-02-01 22:41:00,11.1,-0.1,30.06,NE,54,1.0,3.0,60,0.00,,OVC045,0.00,VWS V12.08,2013-02-02 03:41:00,
2013-02-01 22:46:00,11.3,1.2,30.06,ENE,75,2.0,6.0,63,0.00,,OVC045,0.00,VWS V12.08,2013-02-02 03:46:00,
2013-02-01 22:51:00,11.3,0.8,30.06,NE,55,3.0,4.0,62,0.00,,OVC045,0.00,VWS V12.08,2013-02-02 03:51:00,
2013-02-01 22:56:00,11.3,0.8,30.06,ENE,73,1.0,3.0,62,0.00,,OVC045,0.00,VWS V12.08,2013-02-02 03:56:00,
2013-02-01 23:01:00,11.3,0.8,30.06,ENE,58,1.0,2.0,62,0.00,,OVC045,0.00,VWS V12.08,2013-02-02 04:01:00,
2013-02-01 23:06:00,11.3,0.8,30.06,ENE,76,3.0,3.0,62,0.00,,OVC045,0.00,VWS V12.08,2013-02-02 04:06:00,
2013-02-01 23:11:00,11.3,1.2,30.06,ENE,78,3.0,4.0,63,0.00,,OVC045,0.00,VWS V12.08,2013-02-02 04:11:00,
2013-02-01 23:16:00,11.3,1.2,30.07,NE,56,3.0,3.0,63,0.00,,OVC045,0.00,VWS V12.08,2013-02-02 04:16:00,
2013-02-01 23:21:00,11.3,1.2,30.07,ENE,69,3.0,4.0,63,0.00,,OVC045,0.00,VWS V12.08,2013-02-02 04:21:00,
2013-02-01 23:26:00,11.1,1.0,30.07,East,86,5.0,5.0,63,0.00,,OVC045,0.00,VWS V12.08,2013-02-02 04:26:00,
2013-02-01 23:31:00,11.1,1.3,30.08,ENE,78,0.0,0.0,64,0.00,,OVC045,0.00,VWS V12.08,2013-02-02 04:31:00,
2013-02-01 23:36:00,11.1,1.3,30.08,NE,49,3.0,4.0,64,0.00,,OVC045,0.00,VWS V12.08,2013-02-02 04:36:00,
2013-02-01 23:41:00,11.1,2.0,30.08,NE,52,1.0,2.0,66,0.00,,OVC049,0.00,VWS V12.08,2013-02-02 04:41:00,
2013-02-01 23:46:00,11.1,2.0,30.08,ENE,62,4.0,7.0,66,0.00,,OVC049,0.00,VWS V12.08,2013-02-02 04:46:00,
2013-02-01 23:51:00,10.9,1.8,30.08,ENE,75,4.0,6.0,66,0.00,,OVC049,0.00,VWS V12.08,2013-02-02 04:51:00,
2013-02-01 23:56:00,10.8,1.4,30.08,ENE,73,1.0,2.0,65,0.00,,OVC049,0.00,VWS V12.08,2013-02-02 04:56:00,